createdAt,value
2018-07-02T00:02:25.238Z,11.60
2018-07-02T00:04:53.008Z,11.14
2018-07-02T00:07:22.344Z,10.99
2018-07-02T00:09:50.683Z,10.98
2018-07-02T00:12:19.451Z,10.83
2018-07-02T00:14:48.228Z,10.56
2018-07-02T00:17:16.090Z,10.94
2018-07-02T00:19:43.884Z,10.46
2018-07-02T00:22:12.237Z,10.38
2018-07-02T00:24:40.123Z,10.93
2018-07-02T00:27:08.116Z,10.33
2018-07-02T00:29:35.948Z,10.12
2018-07-02T00:32:03.803Z,10.17
2018-07-02T00:34:31.603Z,10.69
2018-07-02T00:36:59.444Z,10.76
2018-07-02T00:39:27.219Z,10.40
2018-07-02T00:41:55.057Z,10.24
2018-07-02T00:44:22.883Z,9.94
2018-07-02T00:46:50.684Z,9.78
2018-07-02T00:49:18.441Z,10.21
2018-07-02T00:51:46.247Z,10.14
2018-07-02T00:54:14.013Z,10.29
2018-07-02T00:56:41.830Z,10.71
2018-07-02T00:59:09.646Z,10.79
2018-07-02T01:01:37.524Z,10.72
2018-07-02T01:04:05.348Z,10.51
2018-07-02T01:06:33.116Z,10.83
2018-07-02T01:09:00.892Z,10.84
2018-07-02T01:11:28.733Z,10.51
2018-07-02T01:13:56.556Z,10.47
2018-07-02T01:16:24.332Z,9.75
2018-07-02T01:18:52.123Z,9.72
2018-07-02T01:21:20.333Z,10.39
2018-07-02T01:23:48.140Z,10.22
2018-07-02T01:26:16.595Z,9.89
2018-07-02T01:28:44.986Z,9.72
2018-07-02T01:31:13.079Z,10.03
2018-07-02T01:33:40.924Z,10.01
2018-07-02T01:36:08.772Z,10.28
2018-07-02T01:38:36.549Z,10.23
2018-07-02T01:41:04.372Z,9.78
2018-07-02T01:43:33.011Z,9.87
2018-07-02T01:46:00.984Z,10.08
2018-07-02T01:48:28.756Z,10.20
2018-07-02T01:50:56.528Z,10.14
2018-07-02T01:53:24.703Z,10.11
2018-07-02T01:55:52.532Z,9.83
2018-07-02T01:58:20.330Z,10.01
2018-07-02T02:00:48.117Z,10.19
2018-07-02T02:03:15.905Z,10.29
2018-07-02T02:05:43.692Z,10.16
2018-07-02T02:08:11.515Z,10.04
2018-07-02T02:10:39.323Z,10.08
2018-07-02T02:13:07.070Z,10.34
2018-07-02T02:15:34.877Z,10.47
2018-07-02T02:18:02.666Z,10.28
2018-07-02T02:20:30.511Z,10.18
2018-07-02T02:22:58.292Z,10.30
2018-07-02T02:25:26.101Z,10.27
2018-07-02T02:27:53.877Z,10.04
2018-07-02T02:30:21.679Z,10.22
2018-07-02T02:32:49.450Z,10.35
2018-07-02T02:35:17.276Z,10.69
2018-07-02T02:37:45.058Z,10.58
2018-07-02T02:40:12.860Z,10.27
2018-07-02T02:42:40.604Z,10.41
2018-07-02T02:45:08.425Z,10.51
2018-07-02T02:47:36.320Z,10.69
2018-07-02T02:50:04.165Z,10.95
2018-07-02T02:52:31.939Z,11.11
2018-07-02T02:54:59.723Z,11.37
2018-07-02T02:57:27.491Z,11.57
2018-07-02T02:59:55.272Z,11.62
2018-07-02T03:02:23.058Z,11.82
2018-07-02T03:04:50.831Z,11.80
2018-07-02T03:07:18.620Z,11.42
2018-07-02T03:09:46.437Z,11.44
2018-07-02T03:12:14.234Z,11.30
2018-07-02T03:14:42.008Z,11.24
2018-07-02T03:17:09.774Z,11.15
2018-07-02T03:19:37.559Z,11.23
2018-07-02T03:22:05.676Z,11.11
2018-07-02T03:24:33.474Z,11.31
2018-07-02T03:27:01.241Z,11.42
2018-07-02T03:29:29.033Z,11.44
2018-07-02T03:31:56.795Z,11.63
2018-07-02T03:34:24.591Z,11.87
2018-07-02T03:36:52.391Z,11.94
2018-07-02T03:39:20.160Z,11.97
2018-07-02T03:41:47.955Z,11.79
2018-07-02T03:44:15.729Z,11.70
2018-07-02T03:46:43.459Z,11.91
2018-07-02T03:49:11.242Z,11.91
2018-07-02T03:51:39.023Z,11.95
2018-07-02T03:54:06.789Z,12.00
2018-07-02T03:56:34.635Z,12.14
2018-07-02T03:59:02.433Z,12.86
2018-07-02T04:01:30.228Z,13.60
2018-07-02T04:03:58.079Z,13.95
2018-07-02T04:06:25.757Z,14.21
2018-07-02T04:08:53.472Z,14.43
2018-07-02T04:11:21.125Z,14.75
2018-07-02T04:13:48.813Z,15.00
2018-07-02T04:16:16.526Z,15.15
2018-07-02T04:18:44.265Z,15.47
2018-07-02T04:21:11.977Z,15.63
2018-07-02T04:23:39.691Z,15.83
2018-07-02T04:26:07.386Z,15.85
2018-07-02T04:28:35.079Z,15.76
2018-07-02T04:31:02.742Z,16.04
2018-07-02T04:33:30.433Z,16.43
2018-07-02T04:35:58.233Z,16.19
2018-07-02T04:38:25.910Z,16.11
2018-07-02T04:40:53.601Z,16.36
2018-07-02T04:43:21.305Z,16.43
2018-07-02T04:45:49.010Z,16.70
2018-07-02T04:48:16.709Z,16.70
2018-07-02T04:50:44.425Z,17.24
2018-07-02T04:53:12.168Z,17.38
2018-07-02T04:55:39.886Z,17.57
2018-07-02T04:58:07.569Z,17.76
2018-07-02T05:00:35.322Z,18.14
2018-07-02T05:03:02.990Z,18.37
2018-07-02T05:05:30.703Z,18.15
2018-07-02T05:07:58.384Z,18.77
2018-07-02T05:10:26.055Z,18.96
2018-07-02T05:12:53.721Z,18.77
2018-07-02T05:15:21.379Z,18.88
2018-07-02T05:17:49.032Z,18.63
2018-07-02T05:20:16.880Z,18.49
2018-07-02T05:22:44.413Z,18.38
2018-07-02T05:25:12.078Z,18.36
2018-07-02T05:27:39.767Z,18.29
2018-07-02T05:30:07.486Z,18.34
2018-07-02T05:32:35.165Z,18.24
2018-07-02T05:35:02.854Z,18.40
2018-07-02T05:37:30.537Z,18.47
2018-07-02T05:39:58.214Z,18.34
2018-07-02T05:42:25.880Z,18.25
2018-07-02T05:44:53.634Z,18.26
2018-07-02T05:47:21.324Z,18.28
2018-07-02T05:49:48.999Z,18.27
2018-07-02T05:52:16.707Z,18.22
2018-07-02T05:54:44.397Z,18.27
2018-07-02T05:57:12.077Z,18.36
2018-07-02T05:59:39.834Z,18.34
2018-07-02T06:02:07.529Z,18.28
2018-07-02T06:04:35.207Z,18.18
2018-07-02T06:07:02.889Z,18.17
2018-07-02T06:09:30.568Z,18.15
2018-07-02T06:11:58.251Z,18.23
2018-07-02T06:14:25.953Z,18.20
2018-07-02T06:16:53.648Z,18.27
2018-07-02T06:19:21.375Z,18.21
2018-07-02T06:21:49.074Z,18.23
2018-07-02T06:24:16.761Z,18.26
2018-07-02T06:26:44.454Z,18.25
2018-07-02T06:29:12.145Z,18.24
2018-07-02T06:31:39.873Z,18.16
2018-07-02T06:34:07.553Z,18.11
2018-07-02T06:36:35.232Z,18.21
2018-07-02T06:39:03.412Z,18.13
2018-07-02T06:41:31.103Z,18.18
2018-07-02T06:43:58.758Z,18.14
2018-07-02T06:46:26.439Z,18.07
2018-07-02T06:48:54.121Z,18.09
2018-07-02T06:51:21.793Z,18.16
2018-07-02T06:53:49.482Z,18.14
2018-07-02T06:56:17.162Z,18.12
2018-07-02T06:58:44.844Z,18.07
2018-07-02T07:01:12.531Z,18.13
2018-07-02T07:03:40.200Z,18.13
2018-07-02T07:06:07.869Z,18.14
2018-07-02T07:08:35.582Z,18.19
2018-07-02T07:11:03.311Z,18.18
2018-07-02T07:13:30.969Z,18.11
2018-07-02T07:15:58.659Z,18.15
2018-07-02T07:18:26.333Z,18.11
2018-07-02T07:20:54.014Z,18.12
2018-07-02T07:23:21.710Z,18.09
2018-07-02T07:25:49.419Z,18.07
2018-07-02T07:28:17.127Z,18.09
2018-07-02T07:30:44.922Z,18.06
2018-07-02T07:33:12.594Z,18.11
2018-07-02T07:35:40.286Z,18.02
2018-07-02T07:38:08.012Z,18.09
2018-07-02T07:40:35.728Z,18.02
2018-07-02T07:43:03.418Z,18.04
2018-07-02T07:45:31.109Z,18.07
2018-07-02T07:47:58.803Z,18.06
2018-07-02T07:50:26.504Z,18.06
2018-07-02T07:52:54.206Z,18.09
2018-07-02T07:55:21.854Z,18.05
2018-07-02T07:57:49.526Z,18.07
2018-07-02T08:00:17.218Z,18.06
2018-07-02T08:02:44.907Z,18.01
2018-07-02T08:05:12.652Z,17.99
2018-07-02T08:07:40.346Z,18.06
2018-07-02T08:10:08.025Z,18.04
2018-07-02T08:12:35.727Z,18.00
2018-07-02T08:15:03.494Z,18.01
2018-07-02T08:17:31.189Z,18.02
2018-07-02T08:19:58.895Z,18.04
2018-07-02T08:22:26.593Z,18.02
2018-07-02T08:24:54.346Z,18.03
2018-07-02T08:27:22.028Z,18.02
2018-07-02T08:29:49.694Z,18.03
2018-07-02T08:32:17.406Z,18.04
2018-07-02T08:34:45.098Z,18.03
2018-07-02T08:37:12.787Z,18.03
2018-07-02T08:39:40.503Z,18.03
2018-07-02T08:42:08.298Z,18.05
2018-07-02T08:44:35.962Z,17.97
2018-07-02T08:47:03.721Z,18.00
2018-07-02T08:49:31.402Z,18.09
2018-07-02T08:51:59.074Z,18.03
2018-07-02T08:54:27.019Z,18.06
2018-07-02T08:56:54.692Z,18.05
2018-07-02T08:59:22.377Z,18.00
2018-07-02T09:01:50.042Z,18.02
2018-07-02T09:04:17.718Z,18.04
2018-07-02T09:06:45.443Z,18.00
2018-07-02T09:09:13.324Z,18.00
2018-07-02T09:11:41.016Z,17.99
2018-07-02T09:14:08.727Z,18.01
2018-07-02T09:16:36.426Z,18.03
2018-07-02T09:19:04.125Z,18.14
2018-07-02T09:21:32.506Z,18.07
2018-07-02T09:24:00.326Z,18.00
2018-07-02T09:26:28.037Z,18.01
2018-07-02T09:28:55.710Z,18.03
2018-07-02T09:31:23.392Z,18.03
2018-07-02T09:33:51.085Z,18.04
2018-07-02T09:36:18.789Z,18.12
2018-07-02T09:38:46.497Z,18.06
2018-07-02T09:41:14.319Z,18.04
2018-07-02T09:43:42.021Z,18.08
2018-07-02T09:46:09.966Z,18.14
2018-07-02T09:48:37.659Z,18.10
2018-07-02T09:51:05.369Z,18.12
2018-07-02T09:53:33.064Z,18.12
2018-07-02T09:56:00.719Z,18.13
2018-07-02T09:58:28.417Z,18.15
2018-07-02T10:00:56.149Z,18.16
2018-07-02T10:03:23.817Z,18.15
2018-07-02T10:05:51.517Z,18.13
2018-07-02T10:08:19.202Z,18.10
2018-07-02T10:10:46.906Z,18.17
2018-07-02T10:13:14.606Z,18.14
2018-07-02T10:15:42.300Z,18.20
2018-07-02T10:18:10.006Z,18.24
2018-07-02T10:20:37.759Z,18.19
2018-07-02T10:23:05.836Z,18.15
2018-07-02T10:25:33.521Z,18.19
2018-07-02T10:28:01.193Z,18.15
2018-07-02T10:30:28.844Z,18.17
2018-07-02T10:32:56.550Z,18.11
2018-07-02T10:35:24.238Z,18.15
2018-07-02T10:37:51.907Z,18.16
2018-07-02T10:40:19.589Z,18.15
2018-07-02T10:42:47.265Z,18.15
2018-07-02T10:45:15.517Z,18.14
2018-07-02T10:47:43.191Z,18.11
2018-07-02T10:50:10.873Z,18.14
2018-07-02T10:52:38.577Z,18.17
2018-07-02T10:55:06.354Z,18.19
2018-07-02T10:57:34.066Z,18.17
2018-07-02T11:00:02.020Z,18.15
2018-07-02T11:02:29.757Z,18.18
2018-07-02T11:04:57.489Z,18.19
2018-07-02T11:07:25.208Z,18.23
2018-07-02T11:09:52.909Z,18.19
2018-07-02T11:12:20.598Z,18.19
2018-07-02T11:14:48.518Z,18.23
2018-07-02T11:17:16.179Z,18.24
2018-07-02T11:19:43.852Z,18.21
2018-07-02T11:22:11.547Z,18.21
2018-07-02T11:24:39.266Z,18.23
2018-07-02T11:27:06.960Z,18.29
2018-07-02T11:29:34.635Z,18.28
2018-07-02T11:32:02.315Z,18.23
2018-07-02T11:34:30.052Z,18.24
2018-07-02T11:36:57.756Z,18.27
2018-07-02T11:39:25.422Z,18.27
2018-07-02T11:41:53.333Z,18.22
2018-07-02T11:44:21.010Z,18.29
2018-07-02T11:46:48.721Z,18.29
2018-07-02T11:49:16.405Z,18.27
2018-07-02T11:51:44.146Z,18.30
2018-07-02T11:54:11.894Z,18.28
2018-07-02T11:56:39.605Z,18.35
2018-07-02T11:59:07.315Z,18.31
2018-07-02T12:01:34.978Z,18.28
2018-07-02T12:04:02.639Z,18.24
2018-07-02T12:06:30.302Z,18.28
2018-07-02T12:08:58.056Z,18.27
2018-07-02T12:11:25.751Z,18.30
2018-07-02T12:13:53.508Z,18.30
2018-07-02T12:16:21.193Z,18.33
2018-07-02T12:18:49.105Z,18.37
2018-07-02T12:21:16.778Z,18.33
2018-07-02T12:23:52.202Z,18.35
2018-07-02T12:26:19.877Z,18.33
2018-07-02T12:28:47.548Z,18.34
2018-07-02T12:31:15.250Z,18.37
2018-07-02T12:33:42.942Z,18.35
2018-07-02T12:36:10.614Z,18.33
2018-07-02T12:38:38.314Z,18.08
2018-07-02T12:41:06.471Z,18.32
2018-07-02T12:43:34.159Z,18.31
2018-07-02T12:46:01.827Z,18.28
2018-07-02T12:48:29.507Z,18.30
2018-07-02T12:50:57.178Z,18.31
2018-07-02T12:53:24.832Z,18.30
2018-07-02T12:55:52.715Z,18.33
2018-07-02T12:58:20.378Z,18.31
2018-07-02T13:00:48.081Z,18.28
2018-07-02T13:03:15.800Z,18.25
2018-07-02T13:05:43.523Z,18.26
2018-07-02T13:08:11.271Z,18.23
2018-07-02T13:10:39.039Z,18.19
2018-07-02T13:13:06.823Z,18.21
2018-07-02T13:15:34.542Z,18.19
2018-07-02T13:18:02.228Z,18.20
2018-07-02T13:20:29.900Z,18.21
2018-07-02T13:22:57.549Z,18.22
2018-07-02T13:25:25.233Z,18.21
2018-07-02T13:27:52.933Z,18.18
2018-07-02T13:30:20.847Z,18.17
2018-07-02T13:32:48.654Z,18.14
2018-07-02T13:35:16.325Z,18.13
2018-07-02T13:37:44.042Z,18.13
2018-07-02T13:40:11.718Z,18.15
2018-07-02T13:42:39.376Z,18.18
2018-07-02T13:45:07.132Z,18.13
2018-07-02T13:47:34.871Z,18.16
2018-07-02T13:50:02.678Z,18.12
2018-07-02T13:52:30.342Z,18.15
2018-07-02T13:54:58.044Z,18.17
2018-07-02T13:57:25.722Z,18.16
2018-07-02T13:59:53.404Z,18.13
2018-07-02T14:02:21.556Z,18.10
2018-07-02T14:04:49.699Z,18.13
2018-07-02T14:07:17.554Z,18.14
2018-07-02T14:09:45.260Z,18.17
2018-07-02T14:12:12.943Z,18.20
2018-07-02T14:14:40.665Z,18.22
2018-07-02T14:17:08.448Z,18.19
2018-07-02T14:19:36.125Z,18.15
2018-07-02T14:22:03.946Z,18.21
2018-07-02T14:24:31.757Z,18.20
2018-07-02T14:26:59.510Z,18.17
2018-07-02T14:29:27.244Z,18.17
2018-07-02T14:31:54.998Z,18.18
2018-07-02T14:34:22.708Z,18.15
2018-07-02T14:36:50.427Z,18.15
2018-07-02T14:39:18.218Z,18.16
2018-07-02T14:41:45.908Z,18.15
2018-07-02T14:44:13.634Z,18.14
2018-07-02T14:46:41.341Z,18.16
2018-07-02T14:49:09.030Z,18.12
2018-07-02T14:51:36.735Z,18.08
2018-07-02T14:54:04.462Z,18.14
2018-07-02T14:56:32.175Z,18.10
2018-07-02T14:58:59.916Z,18.11
2018-07-02T15:01:30.614Z,18.18
2018-07-02T15:03:58.289Z,18.15
2018-07-02T15:06:26.038Z,18.10
2018-07-02T15:08:53.739Z,18.12
2018-07-02T15:11:21.407Z,18.09
2018-07-02T15:13:49.074Z,18.06
2018-07-02T15:16:17.022Z,17.82
2018-07-02T15:18:44.701Z,18.06
2018-07-02T15:21:12.421Z,18.08
2018-07-02T15:23:40.129Z,18.08
2018-07-02T15:26:07.877Z,18.13
2018-07-02T15:28:36.474Z,18.07
2018-07-02T15:31:04.214Z,18.03
2018-07-02T15:33:31.939Z,18.13
2018-07-02T15:35:59.657Z,18.14
2018-07-02T15:38:27.335Z,18.19
2018-07-02T15:40:55.015Z,18.13
2018-07-02T15:43:22.784Z,18.08
2018-07-02T15:45:50.469Z,18.05
2018-07-02T15:48:18.248Z,18.07
2018-07-02T15:50:45.902Z,18.04
2018-07-02T15:53:13.649Z,18.05
2018-07-02T15:55:41.337Z,18.01
2018-07-02T15:58:09.384Z,18.04
2018-07-02T16:00:37.658Z,18.04
2018-07-02T16:03:05.418Z,18.03
2018-07-02T16:05:33.133Z,18.00
2018-07-02T16:08:01.150Z,18.00
2018-07-02T16:10:29.257Z,18.00
2018-07-02T16:12:57.033Z,18.04
2018-07-02T16:15:24.719Z,18.06
2018-07-02T16:17:52.429Z,18.04
2018-07-02T16:20:20.121Z,18.07
2018-07-02T16:22:47.831Z,18.04
2018-07-02T16:25:15.571Z,18.06
2018-07-02T16:27:43.247Z,18.06
2018-07-02T16:30:10.965Z,18.04
2018-07-02T16:32:38.886Z,18.05
2018-07-02T16:35:06.553Z,18.06
2018-07-02T16:37:34.249Z,18.11
2018-07-02T16:40:02.077Z,18.10
2018-07-02T16:42:29.859Z,18.11
2018-07-02T16:44:59.237Z,18.11
2018-07-02T16:47:26.897Z,18.15
2018-07-02T16:49:54.548Z,18.18
2018-07-02T16:52:22.261Z,18.18
2018-07-02T16:54:49.958Z,18.22
2018-07-02T16:57:17.616Z,18.18
2018-07-02T16:59:45.444Z,18.19
2018-07-02T17:02:13.192Z,18.19
2018-07-02T17:04:40.886Z,18.23
2018-07-02T17:07:08.626Z,18.19
2018-07-02T17:09:36.373Z,18.22
2018-07-02T17:12:04.054Z,18.20
2018-07-02T17:14:31.798Z,18.20
2018-07-02T17:16:59.482Z,18.20
2018-07-02T17:19:27.164Z,18.22
2018-07-02T17:21:54.905Z,18.24
2018-07-02T17:24:22.595Z,18.22
2018-07-02T17:26:50.369Z,18.21
2018-07-02T17:29:18.085Z,18.21
2018-07-02T17:31:45.750Z,18.17
2018-07-02T17:34:13.421Z,18.16
2018-07-02T17:36:41.109Z,18.15
2018-07-02T17:39:09.973Z,17.92
2018-07-02T17:41:37.773Z,18.20
2018-07-02T17:44:05.562Z,18.23
2018-07-02T17:46:33.242Z,18.23
2018-07-02T17:49:00.953Z,18.20
2018-07-02T17:51:28.689Z,18.18
2018-07-02T17:53:56.346Z,18.17
2018-07-02T17:56:24.005Z,18.20
2018-07-02T17:58:51.699Z,18.18
2018-07-02T18:01:19.360Z,18.18
2018-07-02T18:03:47.099Z,18.17
2018-07-02T18:06:14.770Z,18.17
2018-07-02T18:08:42.437Z,18.17
2018-07-02T18:11:10.104Z,18.12
2018-07-02T18:13:37.999Z,18.10
2018-07-02T18:16:05.701Z,18.09
2018-07-02T18:18:33.351Z,18.06
2018-07-02T18:21:01.050Z,18.08
2018-07-02T18:23:28.719Z,18.12
2018-07-02T18:25:56.385Z,18.19
2018-07-02T18:28:24.108Z,18.16
2018-07-02T18:30:51.825Z,18.16
2018-07-02T18:33:19.514Z,18.15
2018-07-02T18:35:47.189Z,18.17
2018-07-02T18:38:14.877Z,18.16
2018-07-02T18:40:42.531Z,18.17
2018-07-02T18:43:10.205Z,18.18
2018-07-02T18:45:37.843Z,18.21
2018-07-02T18:48:05.600Z,18.21
2018-07-02T18:50:33.261Z,18.21
2018-07-02T18:53:00.938Z,18.22
2018-07-02T18:55:28.674Z,18.22
2018-07-02T18:57:56.414Z,18.23
2018-07-02T19:00:24.227Z,18.21
2018-07-02T19:02:51.971Z,18.17
2018-07-02T19:05:19.701Z,18.14
2018-07-02T19:07:47.397Z,18.10
2018-07-02T19:10:15.066Z,18.07
2018-07-02T19:12:42.745Z,18.03
2018-07-02T19:15:10.462Z,18.03
2018-07-02T19:17:38.153Z,18.01
2018-07-02T19:20:06.126Z,17.98
2018-07-02T19:22:33.809Z,17.94
2018-07-02T19:25:01.487Z,17.92
2018-07-02T19:27:29.209Z,17.92
2018-07-02T19:29:56.930Z,17.97
2018-07-02T19:32:24.628Z,18.05
2018-07-02T19:34:52.305Z,18.15
2018-07-02T19:37:20.010Z,18.18
2018-07-02T19:39:47.701Z,18.12
2018-07-02T19:42:15.413Z,18.05
2018-07-02T19:44:43.056Z,17.96
2018-07-02T19:47:10.708Z,17.97
2018-07-02T19:49:38.394Z,18.01
2018-07-02T19:52:06.194Z,18.12
2018-07-02T19:54:33.832Z,18.18
2018-07-02T19:57:01.499Z,18.25
2018-07-02T19:59:29.321Z,18.27
2018-07-02T20:01:56.994Z,17.82
2018-07-02T20:04:24.684Z,18.29
2018-07-02T20:06:52.411Z,18.26
2018-07-02T20:09:20.033Z,18.09
2018-07-02T20:11:47.689Z,18.04
2018-07-02T20:14:15.357Z,18.04
2018-07-02T20:16:42.997Z,17.98
2018-07-02T20:19:10.904Z,17.84
2018-07-02T20:21:38.574Z,17.91
2018-07-02T20:24:06.261Z,17.84
2018-07-02T20:26:33.911Z,17.82
2018-07-02T20:29:01.557Z,17.82
2018-07-02T20:31:29.200Z,17.65
2018-07-02T20:33:56.857Z,17.72
2018-07-02T20:36:24.506Z,17.70
2018-07-02T20:38:52.137Z,17.65
2018-07-02T20:41:19.801Z,17.73
2018-07-02T20:43:47.481Z,17.60
2018-07-02T20:46:15.119Z,17.55
2018-07-02T20:48:42.774Z,17.63
2018-07-02T20:51:10.439Z,17.60
2018-07-02T20:53:38.137Z,17.70
2018-07-02T20:56:06.468Z,17.58
2018-07-02T20:58:34.121Z,17.60
2018-07-02T21:01:01.797Z,17.54
2018-07-02T21:03:29.434Z,17.47
2018-07-02T21:05:57.129Z,17.59
2018-07-02T21:08:24.769Z,17.55
2018-07-02T21:10:52.417Z,17.62
2018-07-02T21:13:20.077Z,17.59
2018-07-02T21:15:47.817Z,17.43
2018-07-02T21:20:47.542Z,17.54
2018-07-02T21:23:15.282Z,17.46
2018-07-02T21:25:42.945Z,17.51
2018-07-02T21:28:10.601Z,17.50
2018-07-02T21:30:38.268Z,17.50
2018-07-02T21:33:05.970Z,17.52
2018-07-02T21:35:33.609Z,17.47
2018-07-02T21:38:01.264Z,17.28
2018-07-02T21:40:28.965Z,17.32
2018-07-02T21:42:56.613Z,17.25
2018-07-02T21:45:24.272Z,17.33
2018-07-02T21:47:51.899Z,17.25
2018-07-02T21:50:19.566Z,17.32
2018-07-02T21:52:47.277Z,17.26
2018-07-02T21:55:14.955Z,17.24
2018-07-02T21:57:42.620Z,17.30
2018-07-02T22:00:12.278Z,17.31
2018-07-02T22:02:39.967Z,17.26
2018-07-02T22:05:08.489Z,17.08
2018-07-02T22:07:36.373Z,17.26
2018-07-02T22:10:04.192Z,17.21
2018-07-02T22:12:31.877Z,17.24
2018-07-02T22:14:59.537Z,17.19
2018-07-02T22:17:27.197Z,17.16
2018-07-02T22:19:54.858Z,17.14
2018-07-02T22:22:22.517Z,17.21
2018-07-02T22:24:50.180Z,17.17
2018-07-02T22:27:17.890Z,17.12
2018-07-02T22:29:45.529Z,17.09
2018-07-02T22:32:13.213Z,16.91
2018-07-02T22:34:40.878Z,17.01
2018-07-02T22:37:08.525Z,17.10
2018-07-02T22:39:36.169Z,17.14
2018-07-02T22:42:03.846Z,17.08
2018-07-02T22:44:31.509Z,17.13
2018-07-02T22:46:59.165Z,16.91
2018-07-02T22:49:26.805Z,16.75
2018-07-02T22:51:54.449Z,16.75
2018-07-02T22:54:22.090Z,16.76
2018-07-02T22:56:49.907Z,16.79
2018-07-02T22:59:17.541Z,16.67
2018-07-02T23:01:45.293Z,16.80
2018-07-02T23:04:12.897Z,16.91
2018-07-02T23:06:40.542Z,16.93
2018-07-02T23:09:09.286Z,16.85
2018-07-02T23:11:36.953Z,16.81
2018-07-02T23:14:04.925Z,16.86
2018-07-02T23:16:32.569Z,16.81
2018-07-02T23:19:00.219Z,16.84
2018-07-02T23:21:27.862Z,16.78
2018-07-02T23:23:55.489Z,16.77
2018-07-02T23:26:23.126Z,16.70
2018-07-02T23:28:51.062Z,16.74
2018-07-02T23:31:18.701Z,16.77
2018-07-02T23:33:46.326Z,16.75
2018-07-02T23:36:13.961Z,16.75
2018-07-02T23:38:41.585Z,16.63
2018-07-02T23:41:09.286Z,16.63
2018-07-02T23:43:36.926Z,16.63
2018-07-02T23:46:04.649Z,16.66
2018-07-02T23:48:32.293Z,16.71
2018-07-02T23:50:59.960Z,16.72
2018-07-02T23:53:27.637Z,16.65
2018-07-02T23:55:55.301Z,16.51
2018-07-02T23:58:22.953Z,16.39
